VTUV

Roi Et Airport

Thailand
TAF VTUV 162300Z 1700/1724 04007KT 8000 FEW030
Issued Valid From Valid To
Jan-16 @ 23:00 UTC
(6 hours ago)
Jan-17 @ 00:00 UTC
(5 hours ago)
Jan-18 @ 00:00 UTC
(in 19 hours)
Jan-17 @ 00:00 to Jan-18 @ 00:00
TAF VTUV 162300Z 1700/1724 04007KT 8000 FEW030
Wind Visibility Clouds
40° at 7 knots 7,998 meters
  • Few at 3,000' AGL
TAF VTUV 162300Z 1700/1724 04007KT 8000 FEW030
Issued Jan-16 @ 23:00 UTC
(6 hours ago)
Valid From Jan-17 @ 00:00 UTC
(5 hours ago)
Valid To Jan-18 @ 00:00 UTC
(in 19 hours)
Jan-17 @ 00:00 - Jan-18 @ 00:00
Wind Visibility
40° at 7 knots 7,998 meters
Clouds
  • Few at 3,000' AGL